createdAt,value
2019-01-23T05:34:08.481Z,4.4
2019-01-23T05:36:32.875Z,6.6
2019-01-23T05:37:45.067Z,6.2
2019-01-23T05:40:09.467Z,7.1
2019-01-23T05:41:21.653Z,7.7
2019-01-23T05:42:33.970Z,6.8
2019-01-23T05:43:45.962Z,8.5
2019-01-23T05:44:58.157Z,8.8
2019-01-23T05:46:10.442Z,9.6
2019-01-23T05:47:22.555Z,8.8
2019-01-23T05:48:34.786Z,10.2
2019-01-23T05:49:47.039Z,8.1
2019-01-23T05:53:23.514Z,9.7
2019-01-23T05:54:35.824Z,10.6
2019-01-23T05:57:00.197Z,12.9
2019-01-23T05:58:12.324Z,10.8
2019-01-23T06:00:36.701Z,12.9
2019-01-23T06:01:48.901Z,14.8
2019-01-23T06:05:25.561Z,13
2019-01-23T06:06:37.678Z,11.3
2019-01-23T06:09:02.087Z,12.3
2019-01-23T06:10:14.261Z,13.8
2019-01-23T06:11:26.455Z,11.9
2019-01-23T06:12:38.788Z,14.3
2019-01-23T06:13:50.848Z,13.2
2019-01-23T06:16:15.318Z,15.3
2019-01-23T06:17:27.463Z,14
2019-01-23T06:22:16.369Z,13.9
2019-01-23T06:23:28.485Z,15.6
2019-01-23T06:24:40.621Z,14.4
2019-01-23T06:25:52.894Z,15.2
2019-01-23T06:28:17.209Z,14.5
2019-01-23T06:29:29.414Z,14.5
2019-01-23T06:30:41.590Z,13.4
2019-01-23T06:31:53.785Z,12
2019-01-23T06:34:22.089Z,11.7
2019-01-23T06:35:32.320Z,12.3
2019-01-23T06:36:42.586Z,14
2019-01-23T06:37:54.784Z,13.7
2019-01-23T06:40:19.158Z,16.8
2019-01-23T06:41:31.477Z,13.4
2019-01-23T06:45:12.010Z,15.8
2019-01-23T06:46:20.199Z,14.4
2019-01-23T06:48:44.520Z,14.5
2019-01-23T06:52:21.230Z,14.5
2019-01-23T06:53:33.426Z,16.1
2019-01-23T06:54:45.538Z,15.8
2019-01-23T06:57:09.962Z,15.2
2019-01-23T06:58:22.146Z,15.2
2019-01-23T06:59:34.390Z,14.1
2019-01-23T07:00:46.560Z,14.8
2019-01-23T07:01:58.741Z,13.5
2019-01-23T07:04:23.146Z,12.5
2019-01-23T07:05:35.261Z,17.5
2019-01-23T07:06:47.578Z,15.3
2019-01-23T07:10:24.126Z,15.9
2019-01-23T07:11:36.249Z,13.2
2019-01-23T07:12:48.437Z,16.5
2019-01-23T07:14:00.719Z,16.7
2019-01-23T07:16:25.025Z,16.3
2019-01-23T07:17:37.214Z,17.4
2019-01-23T07:18:49.407Z,16
2019-01-23T07:21:13.874Z,14.3
2019-01-23T07:22:25.989Z,13.5
2019-01-23T07:24:50.411Z,14.8
2019-01-23T07:28:26.958Z,16
2019-01-23T07:29:39.198Z,16.9
2019-01-23T07:30:51.520Z,13.4
2019-01-23T07:32:03.630Z,17.2
2019-01-23T07:33:15.847Z,16.3
2019-01-23T07:34:28.333Z,14.9
2019-01-23T07:35:40.180Z,15.5
2019-01-23T07:36:52.336Z,15.5
2019-01-23T07:38:04.600Z,13.3
2019-01-23T07:40:29.199Z,15.8
2019-01-23T07:41:41.226Z,13.1
2019-01-23T07:42:53.341Z,13.4
2019-01-23T07:44:05.517Z,13.3
2019-01-23T07:45:17.787Z,15.3
2019-01-23T07:46:29.985Z,13.7
2019-01-23T07:47:42.155Z,16.7
2019-01-23T07:48:54.361Z,16.2
2019-01-23T07:50:06.582Z,17.1
2019-01-23T07:52:30.973Z,15.7
2019-01-23T07:53:43.080Z,14.5
2019-01-23T07:54:55.272Z,16.8
2019-01-23T07:56:08.801Z,12.2
2019-01-23T07:57:19.728Z,16
2019-01-23T07:58:31.854Z,16.3
2019-01-23T07:59:44.062Z,17.1
2019-01-23T08:00:56.275Z,30.7
2019-01-23T08:02:08.570Z,17.1
2019-01-23T08:05:45.020Z,15.1
2019-01-23T08:06:57.217Z,14.6
2019-01-23T08:08:09.502Z,18.3
2019-01-23T08:09:21.625Z,17.1
2019-01-23T08:10:33.806Z,15
2019-01-23T08:11:46.033Z,18.5
2019-01-23T08:12:58.221Z,16.1
2019-01-23T08:14:10.404Z,17.9
2019-01-23T08:15:22.678Z,20.1
2019-01-23T08:16:34.941Z,15.3
2019-01-23T08:17:46.987Z,15
2019-01-23T08:18:59.197Z,15
2019-01-23T08:20:11.487Z,15.7
2019-01-23T08:21:23.645Z,20.4
2019-01-23T08:22:35.848Z,17.4
2019-01-23T08:23:47.968Z,24.2
2019-01-23T08:25:00.197Z,15.3
2019-01-23T08:26:12.425Z,13.6
2019-01-23T08:28:36.949Z,18.4
2019-01-23T08:29:48.945Z,17.2
2019-01-23T08:31:01.181Z,18.7
2019-01-23T08:32:13.324Z,17.4
2019-01-23T08:33:25.522Z,18.1
2019-01-23T08:34:37.791Z,14
2019-01-23T08:35:49.977Z,16.4
2019-01-23T08:37:02.202Z,19.4
2019-01-23T08:38:14.318Z,15.5
2019-01-23T08:40:38.894Z,16.1
2019-01-23T08:41:50.920Z,17.1
2019-01-23T08:43:03.103Z,15.2
2019-01-23T08:44:15.288Z,21.4
2019-01-23T08:46:39.783Z,16.6
2019-01-23T08:47:55.046Z,15.8
2019-01-23T08:49:04.408Z,16.2
2019-01-23T08:50:16.404Z,17.1
2019-01-23T08:52:40.666Z,17.9
2019-01-23T08:53:53.034Z,20.7
2019-01-23T08:55:05.127Z,17.6
2019-01-23T08:56:17.368Z,19.4
2019-01-23T08:57:29.438Z,17.2
2019-01-23T08:58:41.631Z,18.5
2019-01-23T08:59:53.829Z,21
2019-01-23T09:01:06.014Z,16.3
2019-01-23T09:02:18.210Z,16.9
2019-01-23T09:04:42.694Z,21.1
2019-01-23T09:05:54.910Z,18.8
2019-01-23T09:07:07.046Z,15.8
2019-01-23T09:08:19.230Z,15.6
2019-01-23T09:09:31.464Z,18.9
2019-01-23T09:10:43.683Z,20.9
2019-01-23T09:11:55.833Z,19.3
2019-01-23T09:13:07.987Z,15.5
2019-01-23T09:14:20.202Z,17.1
2019-01-23T09:15:32.495Z,19.2
2019-01-23T09:17:56.838Z,15.9
2019-01-23T09:19:09.031Z,16.4
2019-01-23T09:20:21.178Z,18.5
2019-01-23T09:21:33.428Z,22.1
2019-01-23T09:22:45.587Z,17.6
2019-01-23T09:23:57.832Z,15.2
2019-01-23T09:25:09.930Z,21.3
2019-01-23T09:26:22.125Z,18.1
2019-01-23T09:28:46.584Z,16.2
2019-01-23T09:29:58.730Z,17.4
2019-01-23T09:31:10.985Z,17
2019-01-23T09:32:23.123Z,18.2
2019-01-23T09:33:35.354Z,16.4
2019-01-23T09:34:47.509Z,18.4
2019-01-23T09:37:11.897Z,17.2
2019-01-23T09:38:24.226Z,18.7
2019-01-23T09:40:48.636Z,19.6
2019-01-23T09:42:00.755Z,17
2019-01-23T09:43:12.874Z,20.1
2019-01-23T09:44:25.062Z,21.4
2019-01-23T09:45:37.261Z,17.8
2019-01-23T09:46:49.455Z,20.4
2019-01-23T09:48:01.723Z,18.1
2019-01-23T09:49:13.878Z,18
2019-01-23T09:50:26.705Z,18
2019-01-23T09:52:50.425Z,17.6
2019-01-23T09:54:02.626Z,17.4
2019-01-23T09:55:14.932Z,19.5
2019-01-23T09:56:27.030Z,19
2019-01-23T09:57:39.283Z,18.4
2019-01-23T09:58:51.399Z,20.9
2019-01-23T10:00:03.589Z,18.2
2019-01-23T10:01:15.811Z,19.8
2019-01-23T10:02:28.015Z,18.7
2019-01-23T10:04:52.450Z,18.4
2019-01-23T10:06:04.584Z,19.4
2019-01-23T10:07:16.908Z,20.9
2019-01-23T10:09:41.260Z,17.7
2019-01-23T10:10:53.453Z,22.2
2019-01-23T10:13:17.891Z,20.9
2019-01-23T10:14:30.047Z,14.9
2019-01-23T10:18:06.545Z,18.1
2019-01-23T10:21:43.123Z,19.2
2019-01-23T10:22:55.402Z,21.2
2019-01-23T10:24:07.582Z,23.3
2019-01-23T10:25:19.709Z,20.6
2019-01-23T10:26:31.984Z,21.1
2019-01-23T10:28:56.395Z,18.3
2019-01-23T10:30:08.652Z,43.9
2019-01-23T10:31:20.679Z,25.2
2019-01-23T10:32:32.874Z,20.6
2019-01-23T10:33:45.148Z,20
2019-01-23T10:34:57.389Z,17.5
2019-01-23T10:36:09.482Z,15.9
2019-01-23T10:37:21.746Z,18.7
2019-01-23T10:42:10.512Z,15.2
2019-01-23T10:43:22.727Z,15.8
2019-01-23T10:45:47.120Z,21.1
2019-01-23T10:46:59.241Z,18.8
2019-01-23T10:48:11.532Z,14.9
2019-01-23T10:49:23.710Z,19.5
2019-01-23T10:50:35.895Z,19
2019-01-23T10:53:00.230Z,17.1
2019-01-23T10:54:12.432Z,17.7
2019-01-23T10:55:24.685Z,23.2
2019-01-23T10:56:36.885Z,16
2019-01-23T10:57:49.075Z,17.7
2019-01-23T10:59:01.233Z,14.6
2019-01-23T11:00:13.460Z,17.2
2019-01-23T11:01:25.609Z,17.6
2019-01-23T11:02:37.763Z,17.1
2019-01-23T11:05:02.172Z,15.1
2019-01-23T11:06:14.375Z,16.5
2019-01-23T11:07:26.637Z,17.2
2019-01-23T11:08:38.945Z,17.6
2019-01-23T11:11:03.286Z,14.2
2019-01-23T11:12:15.340Z,13.9
2019-01-23T11:13:27.668Z,12.1
2019-01-23T11:14:39.805Z,15.5
2019-01-23T11:17:04.254Z,16.7
2019-01-23T11:18:16.386Z,17
2019-01-23T11:19:28.711Z,14.1
2019-01-23T11:20:40.726Z,15
2019-01-23T11:21:52.977Z,17.8
2019-01-23T11:23:05.102Z,18.7
2019-01-23T11:24:17.383Z,20.1
2019-01-23T11:25:29.557Z,24.3
2019-01-23T11:26:41.802Z,19.4
2019-01-23T11:30:18.297Z,20.7
2019-01-23T11:32:42.769Z,21
2019-01-23T11:33:54.950Z,19.4
2019-01-23T11:35:07.133Z,20.9
2019-01-23T11:36:19.364Z,22.1
2019-01-23T11:37:31.495Z,23.2
2019-01-23T11:38:43.640Z,22.7
2019-01-23T11:41:08.099Z,24.1
2019-01-23T11:42:20.344Z,26.6
2019-01-23T11:43:32.492Z,24.7
2019-01-23T11:44:44.731Z,20.2
2019-01-23T11:45:56.851Z,30.9
2019-01-23T11:47:08.992Z,22
2019-01-23T11:48:21.277Z,27.7
2019-01-23T11:49:33.412Z,28.7
2019-01-23T11:50:45.663Z,25.4
2019-01-23T11:53:09.979Z,29.1
2019-01-23T11:54:22.187Z,25.8
2019-01-23T11:55:34.463Z,28.6
2019-01-23T11:57:58.889Z,25.1
2019-01-23T11:59:10.958Z,29.9
2019-01-23T12:00:23.278Z,28.7
2019-01-23T12:01:35.346Z,26
2019-01-23T12:04:24.882Z,22.5
2019-01-23T12:05:37.051Z,25
2019-01-23T12:06:49.341Z,26
2019-01-23T12:08:01.469Z,23
2019-01-23T12:10:25.944Z,19.9
2019-01-23T12:11:38.045Z,26.3
2019-01-23T12:12:50.246Z,27.4
2019-01-23T12:15:14.627Z,31.7
2019-01-23T12:16:26.822Z,25.4
2019-01-23T12:17:39.058Z,28.7
2019-01-23T12:18:51.468Z,29.6
2019-01-23T12:20:03.396Z,29.5
2019-01-23T12:22:27.793Z,27.7
2019-01-23T12:23:39.993Z,26.7
2019-01-23T12:24:53.118Z,25.4
2019-01-23T12:26:04.502Z,29
2019-01-23T12:27:16.644Z,28.9
2019-01-23T12:28:28.845Z,30.6
2019-01-23T12:29:41.036Z,35.7
2019-01-23T12:30:56.495Z,32.8
2019-01-23T12:32:06.475Z,27.6
2019-01-23T12:34:29.732Z,27.9
2019-01-23T12:35:42.012Z,23.9
2019-01-23T12:36:54.135Z,25
2019-01-23T12:38:06.323Z,25.4
2019-01-23T12:39:18.520Z,27.3
2019-01-23T12:40:30.723Z,25.5
2019-01-23T12:41:42.975Z,37.4
2019-01-23T12:42:55.178Z,30.8
2019-01-23T12:44:07.415Z,29.7
2019-01-23T12:46:31.859Z,27.4
2019-01-23T12:47:43.889Z,27.7
2019-01-23T12:48:56.098Z,29.4
2019-01-23T12:50:08.773Z,24.7
2019-01-23T12:51:20.473Z,31.1
2019-01-23T12:52:32.727Z,24.1
2019-01-23T12:53:44.922Z,26.2
2019-01-23T12:54:57.065Z,31.8
2019-01-23T12:56:09.403Z,33.3
2019-01-23T12:58:33.651Z,30.3
2019-01-23T12:59:45.847Z,28.7
2019-01-23T13:00:58.087Z,28.5
2019-01-23T13:02:10.236Z,31.4
2019-01-23T13:03:22.441Z,28.4
2019-01-23T13:04:34.692Z,26.7
2019-01-23T13:05:46.842Z,29.3
2019-01-23T13:06:59.039Z,25.2
2019-01-23T13:08:11.329Z,29
2019-01-23T13:10:35.609Z,27.5
2019-01-23T13:11:48.038Z,33.6
2019-01-23T13:14:12.278Z,32
2019-01-23T13:15:24.380Z,29.9
2019-01-23T13:16:36.684Z,30
2019-01-23T13:17:49.129Z,28.4
2019-01-23T13:19:01.052Z,29.9
2019-01-23T13:20:13.162Z,30.9
2019-01-23T13:22:37.588Z,35.2
2019-01-23T13:23:49.753Z,28.4
2019-01-23T13:25:01.944Z,31.5
2019-01-23T13:26:14.140Z,28.8
2019-01-23T13:27:26.326Z,31.6
2019-01-23T13:28:38.527Z,31.5
2019-01-23T13:29:52.274Z,29.5
2019-01-23T13:31:02.914Z,30.2
2019-01-23T13:32:15.197Z,33.2
2019-01-23T13:34:39.497Z,33.9
2019-01-23T13:35:51.704Z,29.5
2019-01-23T13:37:03.881Z,30.3
2019-01-23T13:39:28.349Z,32.8
2019-01-23T13:40:40.508Z,29.9
2019-01-23T13:41:52.681Z,32.7
2019-01-23T13:43:04.951Z,33.9
2019-01-23T13:44:17.068Z,32.2
2019-01-23T13:46:42.158Z,33.7
2019-01-23T13:47:53.748Z,32
2019-01-23T13:49:05.854Z,33.6
2019-01-23T13:50:18.059Z,36.7
2019-01-23T13:51:30.245Z,34.9
2019-01-23T13:52:42.517Z,40.1
2019-01-23T13:53:54.641Z,33.1
2019-01-23T13:55:06.944Z,31.6
2019-01-23T13:56:19.096Z,27.2
2019-01-23T13:58:43.470Z,34.3
2019-01-23T13:59:55.671Z,36.5
2019-01-23T14:01:07.872Z,34.4
2019-01-23T14:02:20.059Z,33.2
2019-01-23T14:03:32.190Z,33.2
2019-01-23T14:04:44.390Z,40.5
2019-01-23T14:05:56.606Z,31.3
2019-01-23T14:07:08.770Z,31.2
2019-01-23T14:08:21.053Z,28.5
2019-01-23T14:09:33.332Z,29.4
2019-01-23T14:10:45.350Z,32
2019-01-23T14:11:57.628Z,28.1
2019-01-23T14:13:09.798Z,28
2019-01-23T14:14:22.166Z,30.3
2019-01-23T14:15:34.148Z,34.7
2019-01-23T14:16:46.422Z,41.3
2019-01-23T14:17:58.540Z,32.5
2019-01-23T14:19:10.760Z,32.2
2019-01-23T14:20:22.934Z,40
2019-01-23T14:23:59.579Z,34.5
2019-01-23T14:25:11.705Z,32
2019-01-23T14:26:23.904Z,33.4
2019-01-23T14:27:36.203Z,34.8
2019-01-23T14:28:48.299Z,31.7
2019-01-23T14:30:00.486Z,36.8
2019-01-23T14:31:12.689Z,32.8
2019-01-23T14:34:49.395Z,32.6
2019-01-23T14:36:01.463Z,34.1
2019-01-23T14:37:13.653Z,32.3
2019-01-23T14:40:51.167Z,36.2
2019-01-23T14:42:02.483Z,34.3
2019-01-23T14:43:14.682Z,37.4
2019-01-23T14:46:51.242Z,32.3
2019-01-23T14:48:03.456Z,33.5
2019-01-23T14:49:15.616Z,31.7
2019-01-23T14:50:27.815Z,33
2019-01-23T14:51:39.998Z,33.3
2019-01-23T14:52:52.206Z,35.1
2019-01-23T14:54:04.434Z,27.9
2019-01-23T14:55:16.680Z,32.5
2019-01-23T14:56:28.857Z,33.5
2019-01-23T14:58:53.183Z,36.1
2019-01-23T15:00:05.456Z,35.4
2019-01-23T15:02:29.775Z,38.1
2019-01-23T15:03:41.946Z,27.6
2019-01-23T15:04:54.210Z,31.2
2019-01-23T15:06:06.424Z,37.9
2019-01-23T15:07:18.557Z,41.4
2019-01-23T15:10:55.175Z,43.8
2019-01-23T15:12:07.443Z,36.7
2019-01-23T15:13:19.512Z,33.7
2019-01-23T15:14:31.705Z,37.5
2019-01-23T15:15:43.937Z,37.1
2019-01-23T15:16:56.446Z,37.3
2019-01-23T15:18:08.307Z,30.2
2019-01-23T15:19:20.579Z,36.1
2019-01-23T15:20:32.710Z,32.5
2019-01-23T15:22:57.085Z,32.7
2019-01-23T15:24:09.303Z,34.8
2019-01-23T15:25:21.510Z,31.1
2019-01-23T15:26:33.656Z,30.7
2019-01-23T15:27:45.875Z,45
2019-01-23T15:28:58.056Z,31.6
